Time;durP1;ratioP1;P1;durP2;ratioP2;P2;SDS_P1;SDS_P2;PMS_P1;PMS_P2;Temp;Humidity;BMP_temperature;BMP_pressure;BME280_temperature;BME280_humidity;BME280_pressure;Samples;Min_cycle;Max_cycle;Signal;HPM_P1;HPM_P2
2023/04/02 00:01:27;;;;;;;1.80;0.57;;;9.40;99.90;;;;;;5008962;28;20045;-69
2023/04/02 00:03:59;;;;;;;0.63;0.50;;;9.30;99.90;;;;;;5013006;28;20444;-69
2023/04/02 00:06:33;;;;;;;1.40;0.70;;;9.40;99.90;;;;;;5008879;28;20046;-69
2023/04/02 00:09:29;;;;;;;1.98;0.90;;;9.40;99.90;;;;;;5006287;28;20101;-68
2023/04/02 00:11:55;;;;;;;0.77;0.75;;;9.40;99.90;;;;;;5002538;28;20026;-68
2023/04/02 00:14:33;;;;;;;1.15;0.55;;;9.40;99.90;;;;;;5012742;28;20079;-69
2023/04/02 00:17:04;;;;;;;2.65;0.65;;;9.40;99.90;;;;;;5008840;28;20055;-68
2023/04/02 00:19:51;;;;;;;0.85;0.45;;;9.40;99.90;;;;;;5008856;28;20022;-69
2023/04/02 00:22:24;;;;;;;0.38;0.30;;;9.30;99.90;;;;;;5003099;28;20025;-68
2023/04/02 00:24:53;;;;;;;1.38;0.55;;;9.40;99.90;;;;;;4995547;28;20037;-68
2023/04/02 00:27:20;;;;;;;1.08;0.60;;;9.40;99.90;;;;;;5007830;28;20426;-69
2023/04/02 00:29:54;;;;;;;7.75;0.63;;;9.40;99.90;;;;;;5010819;28;20383;-69
2023/04/02 00:32:29;;;;;;;0.88;0.32;;;9.40;99.90;;;;;;5000262;28;20022;-69
2023/04/02 00:34:55;;;;;;;4.22;0.60;;;9.40;99.90;;;;;;4976081;28;20038;-68
2023/04/02 00:37:26;;;;;;;0.55;0.30;;;9.40;99.90;;;;;;5012249;28;20080;-68
2023/04/02 00:40:15;;;;;;;;;;;9.40;99.90;;;;;;4960249;28;20042;-68
2023/04/02 00:42:43;;;;;;;6.05;0.77;;;9.30;99.90;;;;;;5004279;28;19968;-68
2023/04/02 00:45:18;;;;;;;1.65;0.82;;;9.40;99.90;;;;;;5009911;28;20026;-68
2023/04/02 00:47:44;;;;;;;1.95;0.90;;;9.30;99.90;;;;;;5010386;28;20651;-68
2023/04/02 00:50:14;;;;;;;1.42;0.80;;;9.20;99.90;;;;;;5009811;28;20030;-68
2023/04/02 00:52:43;;;;;;;0.93;0.50;;;9.20;99.90;;;;;;5010749;28;20555;-68
2023/04/02 00:55:16;;;;;;;0.38;0.38;;;9.10;99.90;;;;;;5010350;28;20121;-68
2023/04/02 00:57:43;;;;;;;0.40;0.40;;;9.20;99.90;;;;;;4993886;28;20029;-68
2023/04/02 01:00:31;;;;;;;0.50;0.40;;;9.20;99.90;;;;;;5009875;28;20030;-68
2023/04/02 01:03:21;;;;;;;1.60;0.75;;;9.20;99.90;;;;;;5011610;28;20021;-68
2023/04/02 01:06:02;;;;;;;0.60;0.50;;;9.30;99.90;;;;;;5005636;28;20061;-68
2023/04/02 01:08:37;;;;;;;;;;;9.30;99.90;;;;;;5003151;28;20031;-68
2023/04/02 01:12:01;;;;;;;2.97;0.57;;;9.30;99.90;;;;;;5008882;28;20293;-69
2023/04/02 01:14:45;;;;;;;0.52;0.40;;;9.30;99.90;;;;;;5008688;28;20038;-68
2023/04/02 01:17:57;;;;;;;2.78;1.52;;;9.30;99.90;;;;;;5006742;28;20046;-69
2023/04/02 01:20:40;;;;;;;1.33;0.50;;;9.20;99.90;;;;;;4992393;28;20697;-69
2023/04/02 01:23:16;;;;;;;2.30;1.10;;;9.10;99.90;;;;;;5005098;28;20117;-69
2023/04/02 01:26:09;;;;;;;1.35;0.60;;;9.10;99.90;;;;;;4977390;28;20034;-69
2023/04/02 01:28:59;;;;;;;3.72;0.95;;;9.10;99.90;;;;;;5011543;28;20026;-69
2023/04/02 01:31:26;;;;;;;2.38;0.80;;;9.10;99.90;;;;;;5001087;28;20033;-69
2023/04/02 01:33:53;;;;;;;5.30;0.50;;;9.10;99.90;;;;;;5011235;28;20052;-69
2023/04/02 01:36:39;;;;;;;0.52;0.52;;;9.10;99.90;;;;;;5000945;28;20099;-69
2023/04/02 01:40:13;;;;;;;1.98;0.80;;;9.10;99.90;;;;;;4998703;28;20022;-69
2023/04/02 01:42:50;;;;;;;2.15;1.23;;;9.10;99.90;;;;;;4990949;28;20046;-69
2023/04/02 01:45:20;;;;;;;2.92;0.65;;;9.10;99.90;;;;;;5007980;28;20035;-69
2023/04/02 01:47:47;;;;;;;6.28;0.93;;;9.20;99.90;;;;;;4992617;28;20030;-69
2023/04/02 01:50:40;;;;;;;3.10;1.02;;;9.20;99.90;;;;;;5008911;28;20133;-68
2023/04/02 01:53:11;;;;;;;1.65;1.35;;;9.20;99.90;;;;;;5005260;28;20022;-69
2023/04/02 01:55:47;;;;;;;5.63;0.80;;;9.20;99.90;;;;;;4989629;28;20049;-69
2023/04/02 01:58:20;;;;;;;1.67;0.70;;;9.20;99.90;;;;;;5002268;28;20038;-69
2023/04/02 02:01:02;;;;;;;0.47;0.40;;;9.20;99.90;;;;;;4998719;28;20041;-69
2023/04/02 02:03:29;;;;;;;1.05;0.73;;;9.20;99.90;;;;;;5004064;28;20025;-68
2023/04/02 02:05:55;;;;;;;2.42;1.05;;;9.20;99.90;;;;;;4989956;28;20042;-68
2023/04/02 02:09:05;;;;;;;1.42;0.80;;;9.20;99.90;;;;;;5006153;28;20024;-68
2023/04/02 02:11:32;;;;;;;1.60;0.50;;;9.20;99.90;;;;;;4994560;28;20438;-69
2023/04/02 02:14:20;;;;;;;6.70;0.98;;;9.30;99.90;;;;;;5016305;28;20508;-69
2023/04/02 02:16:47;;;;;;;2.63;0.93;;;9.30;99.90;;;;;;4992654;28;20053;-69
2023/04/02 02:19:33;;;;;;;1.95;0.50;;;9.30;99.90;;;;;;4998008;28;20030;-68
2023/04/02 02:22:32;;;;;;;2.38;1.02;;;9.30;99.90;;;;;;4996929;28;20024;-69
2023/04/02 02:25:01;;;;;;;1.00;0.47;;;9.30;99.90;;;;;;4973676;28;20030;-69
2023/04/02 02:27:27;;;;;;;2.70;1.15;;;9.30;99.90;;;;;;4987258;28;20394;-70
2023/04/02 02:30:03;;;;;;;2.17;0.85;;;9.20;99.90;;;;;;5010762;28;20044;-67
2023/04/02 02:32:31;;;;;;;1.40;0.80;;;9.30;99.90;;;;;;5004064;28;20049;-68
2023/04/02 02:35:21;;;;;;;1.70;0.82;;;9.20;99.90;;;;;;5008945;28;20507;-68
2023/04/02 02:37:58;;;;;;;1.45;0.75;;;9.20;99.90;;;;;;5008814;28;20022;-68
2023/04/02 02:40:36;;;;;;;0.80;0.60;;;9.20;99.90;;;;;;4988729;28;20030;-68
2023/04/02 02:43:05;;;;;;;1.17;0.90;;;9.20;99.90;;;;;;5002661;28;20017;-68
2023/04/02 02:45:37;;;;;;;1.00;0.55;;;9.20;99.90;;;;;;4988479;28;20034;-68
2023/04/02 02:48:11;;;;;;;3.03;0.80;;;9.30;99.90;;;;;;5001232;28;20528;-68
2023/04/02 02:50:38;;;;;;;1.40;0.70;;;9.30;99.90;;;;;;5015370;23;20118;-69
2023/04/02 02:53:19;;;;;;;0.98;0.60;;;9.20;99.90;;;;;;5004345;28;20433;-72
2023/04/02 02:55:48;;;;;;;4.63;1.70;;;9.20;99.90;;;;;;5007654;28;20121;-71
2023/04/02 02:58:22;;;;;;;1.50;0.82;;;9.20;99.90;;;;;;5005565;28;20033;-71
2023/04/02 03:00:48;;;;;;;1.90;0.80;;;9.20;99.90;;;;;;5022792;28;20072;-70
2023/04/02 03:03:23;;;;;;;1.15;0.88;;;9.20;99.90;;;;;;5004990;28;20034;-71
2023/04/02 03:06:01;;;;;;;1.30;0.82;;;9.20;99.90;;;;;;5006778;28;20038;-71
2023/04/02 03:08:39;;;;;;;1.20;0.60;;;9.20;99.90;;;;;;5007240;28;20030;-70
2023/04/02 03:11:16;;;;;;;1.63;0.75;;;9.10;99.90;;;;;;5003325;28;20029;-70
2023/04/02 03:13:47;;;;;;;0.80;0.40;;;9.20;99.90;;;;;;5006590;28;20577;-70
2023/04/02 03:16:33;;;;;;;;;;;9.10;99.90;;;;;;4990994;28;20053;-69
2023/04/02 03:19:07;;;;;;;1.23;0.65;;;9.10;99.90;;;;;;5009289;28;19920;-69
2023/04/02 03:21:53;;;;;;;0.63;0.45;;;9.20;99.90;;;;;;5001761;28;20112;-69
2023/04/02 03:24:57;;;;;;;1.38;0.85;;;9.10;99.90;;;;;;5000595;28;20053;-69
2023/04/02 03:27:30;;;;;;;1.60;0.77;;;9.10;99.90;;;;;;4989975;28;20556;-69
2023/04/02 03:30:29;;;;;;;3.35;0.90;;;9.10;99.90;;;;;;5002866;28;20037;-70
2023/04/02 03:33:03;;;;;;;4.05;1.50;;;9.20;99.90;;;;;;5006562;28;20037;-69
2023/04/02 03:35:55;;;;;;;1.85;0.68;;;9.30;99.90;;;;;;5009892;28;20061;-70
2023/04/02 03:38:42;;;;;;;1.08;0.73;;;9.30;99.90;;;;;;5009430;28;20018;-69
2023/04/02 03:41:18;;;;;;;1.02;0.85;;;9.30;99.90;;;;;;4978016;28;20026;-70
2023/04/02 03:43:53;;;;;;;0.60;0.52;;;9.20;99.90;;;;;;5012351;28;20046;-70
2023/04/02 03:46:40;;;;;;;1.40;0.75;;;9.20;99.90;;;;;;5002032;28;20118;-70
2023/04/02 03:49:26;;;;;;;0.65;0.43;;;9.20;99.90;;;;;;5006498;28;20029;-70
2023/04/02 03:52:02;;;;;;;2.05;1.13;;;9.30;99.90;;;;;;5005901;28;20021;-70
2023/04/02 03:54:28;;;;;;;1.55;0.52;;;9.20;99.90;;;;;;5003795;28;20032;-70
2023/04/02 03:56:55;;;;;;;2.28;1.00;;;9.20;99.90;;;;;;5005843;28;20065;-70
2023/04/02 04:00:00;;;;;;;2.85;1.13;;;9.10;99.90;;;;;;5003787;28;20026;-70
2023/04/02 04:02:37;;;;;;;1.42;0.88;;;9.10;99.90;;;;;;4996500;28;20494;-70
2023/04/02 04:05:06;;;;;;;1.70;0.90;;;9.20;99.90;;;;;;5005294;28;20038;-70
2023/04/02 04:07:39;;;;;;;1.10;0.82;;;9.20;99.90;;;;;;4996523;28;20025;-70
2023/04/02 04:10:08;;;;;;;3.50;1.10;;;9.20;99.90;;;;;;5005711;28;20494;-70
2023/04/02 04:12:39;;;;;;;0.93;0.75;;;9.10;99.90;;;;;;4996384;28;20482;-70
2023/04/02 04:15:35;;;;;;;1.80;0.95;;;9.10;99.90;;;;;;4998820;28;20030;-70
2023/04/02 04:18:39;;;;;;;1.20;0.70;;;9.10;99.90;;;;;;5005061;28;20121;-70
2023/04/02 04:21:35;;;;;;;1.38;1.00;;;9.10;99.90;;;;;;4990457;28;20065;-70
2023/04/02 04:24:15;;;;;;;1.10;0.75;;;9.10;99.90;;;;;;5012543;28;20026;-70
2023/04/02 04:26:48;;;;;;;1.92;0.90;;;9.10;99.90;;;;;;5005627;28;20121;-70
2023/04/02 04:29:37;;;;;;;1.60;0.63;;;9.10;99.90;;;;;;5012625;28;20121;-70
2023/04/02 04:32:37;;;;;;;2.10;0.90;;;9.00;99.90;;;;;;4996060;28;20042;-70
2023/04/02 04:35:31;;;;;;;2.53;1.87;;;9.00;99.90;;;;;;5006356;28;20108;-70
2023/04/02 04:38:07;;;;;;;1.17;0.70;;;9.00;99.90;;;;;;5003156;28;20084;-70
2023/04/02 04:40:40;;;;;;;1.83;1.05;;;8.90;99.90;;;;;;5008383;28;20045;-69
2023/04/02 04:43:17;;;;;;;1.42;0.82;;;9.00;99.90;;;;;;5005633;28;20088;-70
2023/04/02 04:45:50;;;;;;;4.68;1.33;;;8.90;99.90;;;;;;5008332;28;20042;-69
2023/04/02 04:48:25;;;;;;;2.85;1.30;;;8.90;99.90;;;;;;5007966;28;20552;-70
2023/04/02 04:51:28;;;;;;;2.58;1.08;;;8.80;99.90;;;;;;4991538;28;20033;-70
2023/04/02 04:53:54;;;;;;;2.67;0.90;;;9.10;99.90;;;;;;4996569;28;20687;-69
2023/04/02 04:56:27;;;;;;;3.30;1.60;;;9.10;99.90;;;;;;4977639;28;20049;-69
2023/04/02 04:59:21;;;;;;;2.72;1.52;;;9.00;99.90;;;;;;5003409;28;20080;-70
2023/04/02 05:02:00;;;;;;;1.92;1.02;;;9.00;99.90;;;;;;5004700;28;20386;-70
2023/04/02 05:04:41;;;;;;;7.70;1.73;;;9.00;99.90;;;;;;5011637;28;20026;-70
2023/04/02 05:07:16;;;;;;;2.88;1.27;;;9.00;99.90;;;;;;5004731;28;20034;-69
2023/04/02 05:10:08;;;;;;;6.25;1.70;;;9.00;99.90;;;;;;5002550;28;20081;-69
2023/04/02 05:12:34;;;;;;;2.08;1.33;;;9.10;99.90;;;;;;5004312;28;20026;-69
2023/04/02 05:15:15;;;;;;;3.78;1.35;;;9.10;99.90;;;;;;5013505;28;20038;-70
2023/04/02 05:17:52;;;;;;;2.83;1.65;;;9.00;99.90;;;;;;5004252;28;20093;-69
2023/04/02 05:20:35;;;;;;;1.75;0.88;;;9.00;99.90;;;;;;5005963;28;20037;-69
2023/04/02 05:23:26;;;;;;;2.22;1.00;;;9.00;99.90;;;;;;4996045;28;20532;-69
2023/04/02 05:26:13;;;;;;;2.35;1.10;;;9.00;99.90;;;;;;5009795;28;20038;-68
2023/04/02 05:29:00;;;;;;;7.13;1.88;;;8.90;99.90;;;;;;5006752;28;20034;-70
2023/04/02 05:31:45;;;;;;;1.33;0.90;;;8.90;99.90;;;;;;4996545;28;20038;-70
2023/04/02 05:34:12;;;;;;;1.85;1.17;;;8.90;99.90;;;;;;5010384;28;20030;-70
2023/04/02 05:36:38;;;;;;;5.07;2.17;;;8.90;99.90;;;;;;4996492;28;20034;-69
2023/04/02 05:39:09;;;;;;;7.05;3.20;;;8.90;99.90;;;;;;5001552;28;20104;-69
2023/04/02 05:41:46;;;;;;;1.73;1.20;;;8.90;99.90;;;;;;4996695;28;20030;-69
2023/04/02 05:44:32;;;;;;;3.38;1.55;;;8.80;99.90;;;;;;4985700;28;20053;-69
2023/04/02 05:47:19;;;;;;;3.55;1.55;;;8.80;99.90;;;;;;4986818;28;20030;-69
2023/04/02 05:50:08;;;;;;;3.13;1.52;;;8.90;99.90;;;;;;5001560;28;20052;-69
2023/04/02 05:52:47;;;;;;;8.90;1.58;;;8.90;99.90;;;;;;5003699;28;20033;-70
2023/04/02 05:55:15;;;;;;;8.25;1.60;;;8.90;99.90;;;;;;5010670;28;20034;-70
2023/04/02 05:57:55;;;;;;;1.95;1.17;;;8.90;99.90;;;;;;5003455;28;20029;-70
2023/04/02 06:00:58;;;;;;;1.67;1.02;;;8.90;99.90;;;;;;5005786;28;20561;-70
2023/04/02 06:03:37;;;;;;;3.47;1.52;;;8.90;99.90;;;;;;5008717;28;20038;-68
2023/04/02 06:06:18;;;;;;;4.38;1.30;;;8.90;99.90;;;;;;4975123;28;20038;-69
2023/04/02 06:09:02;;;;;;;2.58;1.63;;;9.00;99.90;;;;;;4993498;28;20030;-70
2023/04/02 06:11:44;;;;;;;2.53;1.15;;;9.00;99.90;;;;;;4998912;28;20490;-69
2023/04/02 06:14:15;;;;;;;5.28;1.90;;;9.00;99.90;;;;;;5010717;28;20029;-69
2023/04/02 06:16:43;;;;;;;;;;;9.00;99.90;;;;;;4995738;28;20058;-69
2023/04/02 06:19:29;;;;;;;2.10;1.10;;;9.00;99.90;;;;;;5009259;28;20000;-69
2023/04/02 06:22:07;;;;;;;9.48;1.40;;;9.00;99.90;;;;;;4994315;28;20036;-70
2023/04/02 06:24:36;;;;;;;6.03;1.13;;;9.00;99.90;;;;;;4999380;28;20037;-69
2023/04/02 06:27:05;;;;;;;2.55;1.15;;;9.00;99.90;;;;;;5003320;28;20508;-69
2023/04/02 06:29:39;;;;;;;2.25;1.50;;;9.00;99.90;;;;;;5010795;28;20072;-71
2023/04/02 06:32:11;;;;;;;3.53;1.27;;;9.10;99.90;;;;;;4994266;28;20022;-71
2023/04/02 06:34:40;;;;;;;3.35;1.48;;;9.10;99.90;;;;;;5009945;28;20029;-71
2023/04/02 06:37:22;;;;;;;1.13;1.02;;;9.10;99.90;;;;;;4994278;28;20570;-71
2023/04/02 06:39:48;;;;;;;3.95;1.27;;;9.10;99.90;;;;;;5010716;28;20034;-71
2023/04/02 06:42:41;;;;;;;2.25;1.20;;;9.00;99.90;;;;;;5003228;28;20463;-72
2023/04/02 06:45:29;;;;;;;3.58;1.50;;;9.00;99.90;;;;;;5004960;28;20132;-71
2023/04/02 06:47:58;;;;;;;2.38;1.35;;;9.10;99.90;;;;;;4994875;28;20029;-70
2023/04/02 06:51:00;;;;;;;3.83;1.40;;;9.00;99.90;;;;;;5005740;28;20022;-74
2023/04/02 06:53:44;;;;;;;2.10;1.38;;;9.10;99.90;;;;;;5005926;28;20054;-72
2023/04/02 06:56:40;;;;;;;3.92;1.52;;;9.00;99.90;;;;;;4987505;28;20030;-72
2023/04/02 06:59:07;;;;;;;2.47;1.20;;;9.10;99.90;;;;;;5003400;28;20034;-72
2023/04/02 07:01:39;;;;;;;4.47;1.83;;;9.20;99.90;;;;;;4985902;28;20102;-72
2023/04/02 07:04:06;;;;;;;5.40;2.35;;;9.30;99.90;;;;;;5000851;28;20120;-74
2023/04/02 07:06:31;;;;;;;7.00;3.22;;;9.30;99.90;;;;;;4986763;28;20019;-74
2023/04/02 07:08:57;;;;;;;4.63;1.48;;;9.50;99.90;;;;;;5014125;28;20030;-75
2023/04/02 07:11:23;;;;;;;1.90;1.17;;;9.40;99.90;;;;;;5001284;28;20556;-73
2023/04/02 07:13:49;;;;;;;1.52;1.30;;;9.40;99.90;;;;;;5003631;28;20195;-72
2023/04/02 07:16:20;;;;;;;1.88;1.02;;;9.50;99.90;;;;;;5008160;28;20117;-73
2023/04/02 07:18:47;;;;;;;3.33;1.48;;;9.40;99.90;;;;;;5012206;28;20044;-73
2023/04/02 07:21:13;;;;;;;3.55;1.48;;;9.40;99.90;;;;;;5008186;28;20030;-73
2023/04/02 07:23:39;;;;;;;3.58;1.70;;;9.30;99.90;;;;;;4995503;28;20073;-73
2023/04/02 07:26:07;;;;;;;2.65;1.60;;;9.40;99.90;;;;;;5022684;28;20455;-72
2023/04/02 07:28:33;;;;;;;2.13;1.30;;;9.40;99.90;;;;;;5010263;28;20060;-73
2023/04/02 07:31:00;;;;;;;3.45;1.58;;;9.40;99.90;;;;;;4991457;28;20018;-80
2023/04/02 07:33:28;;;;;;;2.63;1.42;;;9.50;99.90;;;;;;5010593;28;20030;-79
2023/04/02 07:35:56;;;;;;;2.90;1.70;;;9.50;99.90;;;;;;5009286;28;20113;-70
2023/04/02 07:38:22;;;;;;;2.58;1.38;;;9.60;99.90;;;;;;5009733;28;20034;-73
2023/04/02 07:40:49;;;;;;;2.47;1.10;;;9.70;99.90;;;;;;5011023;28;20050;-73
2023/04/02 07:43:14;;;;;;;2.38;1.40;;;9.70;99.90;;;;;;5011957;28;20065;-73
2023/04/02 07:45:40;;;;;;;2.85;1.00;;;9.60;99.90;;;;;;5012465;28;20065;-73
2023/04/02 07:48:10;;;;;;;5.65;2.00;;;9.50;99.90;;;;;;5006444;28;20025;-75
2023/04/02 07:50:36;;;;;;;2.00;1.48;;;9.60;99.90;;;;;;4993570;28;20030;-75
2023/04/02 07:53:02;;;;;;;3.17;1.58;;;9.70;99.90;;;;;;4995086;28;20092;-73
2023/04/02 07:55:28;;;;;;;4.70;2.00;;;9.70;99.90;;;;;;4999193;28;20041;-73
2023/04/02 07:57:58;;;;;;;2.67;1.30;;;9.80;99.90;;;;;;4999655;28;20041;-71
2023/04/02 08:00:25;;;;;;;2.00;1.67;;;9.90;99.90;;;;;;5010234;28;20444;-70
2023/04/02 08:02:52;;;;;;;3.38;1.13;;;9.90;99.90;;;;;;4995255;28;20506;-71
2023/04/02 08:05:18;;;;;;;2.10;1.27;;;9.90;99.90;;;;;;4998609;28;20128;-68
2023/04/02 08:07:52;;;;;;;1.90;1.33;;;10.00;99.90;;;;;;5005283;28;20767;-73
2023/04/02 08:10:18;;;;;;;3.03;1.48;;;10.00;99.90;;;;;;5012492;28;20040;-69
2023/04/02 08:12:44;;;;;;;2.60;1.20;;;10.10;99.90;;;;;;4994517;28;20030;-71
2023/04/02 08:15:14;;;;;;;1.60;0.80;;;10.10;99.90;;;;;;5012431;28;20030;-70
2023/04/02 08:17:41;;;;;;;6.17;2.07;;;10.10;99.90;;;;;;4993273;28;20042;-70
2023/04/02 08:20:16;;;;;;;2.40;1.17;;;10.10;99.90;;;;;;4989000;28;20034;-69
2023/04/02 08:22:44;;;;;;;2.53;1.00;;;10.10;99.90;;;;;;4995516;28;20038;-70
2023/04/02 08:25:10;;;;;;;2.42;1.45;;;10.20;99.90;;;;;;5023199;28;20532;-70
2023/04/02 08:27:36;;;;;;;5.93;0.98;;;10.20;99.90;;;;;;5012320;28;20030;-70
2023/04/02 08:30:03;;;;;;;4.45;1.13;;;10.20;99.90;;;;;;5000832;28;20040;-70
2023/04/02 08:32:29;;;;;;;2.70;1.42;;;10.60;99.90;;;;;;5004899;28;20052;-70
2023/04/02 08:34:55;;;;;;;2.05;1.45;;;10.60;99.90;;;;;;5011875;28;20514;-72
2023/04/02 08:37:21;;;;;;;1.67;1.08;;;10.60;99.90;;;;;;4991382;28;20042;-72
2023/04/02 08:39:47;;;;;;;2.22;1.42;;;10.90;99.90;;;;;;5011956;28;20092;-71
2023/04/02 08:42:40;;;;;;;2.85;1.23;;;10.70;99.90;;;;;;4996797;28;20064;-72
2023/04/02 08:46:08;;;;;;;2.17;1.20;;;10.80;99.90;;;;;;5005663;28;20030;-72
2023/04/02 08:48:39;;;;;;;4.38;1.30;;;10.90;99.90;;;;;;5005973;28;20045;-73
2023/04/02 08:51:16;;;;;;;0.98;0.75;;;11.00;99.90;;;;;;5004378;28;20045;-71
2023/04/02 08:53:42;;;;;;;1.98;1.02;;;11.10;99.90;;;;;;5004169;23;20501;-69
2023/04/02 08:56:43;;;;;;;3.35;2.03;;;10.90;99.90;;;;;;5021155;28;20073;-69
2023/04/02 08:59:37;;;;;;;10.13;3.33;;;11.10;99.90;;;;;;5006982;28;20111;-69
2023/04/02 09:02:08;;;;;;;2.72;1.20;;;11.50;99.90;;;;;;4992072;28;20042;-69
2023/04/02 09:04:35;;;;;;;1.90;0.90;;;11.20;99.90;;;;;;5008844;28;20075;-69
2023/04/02 09:07:02;;;;;;;3.50;1.20;;;11.20;99.90;;;;;;4992803;28;20034;-68
2023/04/02 09:09:28;;;;;;;1.42;0.85;;;11.10;99.90;;;;;;5014816;28;20057;-69
2023/04/02 09:11:59;;;;;;;3.20;1.20;;;11.10;99.90;;;;;;5010776;28;20029;-68
2023/04/02 09:14:37;;;;;;;;;;;11.10;99.90;;;;;;5008125;28;20022;-71
2023/04/02 09:17:10;;;;;;;2.60;1.00;;;11.10;99.90;;;;;;5010119;28;19914;-72
2023/04/02 09:19:43;;;;;;;1.67;1.17;;;11.00;99.90;;;;;;5001885;28;20025;-74
2023/04/02 09:22:35;;;;;;;2.45;1.40;;;11.10;99.90;;;;;;5007862;28;20393;-73
2023/04/02 09:25:11;;;;;;;1.60;1.10;;;10.90;99.90;;;;;;5002144;28;20046;-73
2023/04/02 09:27:37;;;;;;;2.55;1.60;;;10.90;99.90;;;;;;5006979;28;20034;-73
2023/04/02 09:30:09;;;;;;;3.05;1.55;;;10.90;99.90;;;;;;5001168;28;20036;-73
2023/04/02 09:32:54;;;;;;;2.30;1.20;;;10.80;99.90;;;;;;5005887;28;20034;-73
2023/04/02 09:35:29;;;;;;;1.75;1.08;;;11.20;99.90;;;;;;5010725;28;20045;-74
2023/04/02 09:38:21;;;;;;;3.33;1.75;;;11.40;99.90;;;;;;4984316;28;20110;-73
2023/04/02 09:40:53;;;;;;;4.05;2.35;;;11.30;99.90;;;;;;5000950;28;20033;-72
2023/04/02 09:43:31;;;;;;;2.15;1.52;;;11.40;99.90;;;;;;5007900;28;20026;-74
2023/04/02 09:46:12;;;;;;;2.65;1.48;;;11.30;99.90;;;;;;5000815;28;20052;-74
2023/04/02 09:48:59;;;;;;;2.47;1.40;;;11.80;99.90;;;;;;5006309;28;20033;-74
2023/04/02 09:51:33;;;;;;;2.20;1.30;;;12.20;99.90;;;;;;5006111;28;20080;-58
2023/04/02 09:54:01;;;;;;;3.50;2.25;;;12.60;99.90;;;;;;5007062;28;20173;-55
2023/04/02 09:56:33;;;;;;;4.07;1.92;;;12.60;99.90;;;;;;5013315;28;20040;-58
2023/04/02 09:59:15;;;;;;;2.50;1.65;;;12.80;99.90;;;;;;5006261;28;20030;-57
2023/04/02 10:02:07;;;;;;;2.13;1.35;;;13.40;99.90;;;;;;5010419;28;20695;-58
2023/04/02 10:04:37;;;;;;;1.38;0.82;;;13.20;99.90;;;;;;4999535;28;20041;-57
2023/04/02 10:07:07;;;;;;;2.13;1.33;;;12.80;99.90;;;;;;5009033;28;20041;-58
2023/04/02 10:09:37;;;;;;;2.65;1.50;;;13.10;99.90;;;;;;5000634;28;20034;-56
2023/04/02 10:12:13;;;;;;;3.47;1.33;;;13.70;99.90;;;;;;5008998;28;20117;-57
2023/04/02 10:14:43;;;;;;;1.85;1.30;;;13.30;99.90;;;;;;5000454;28;20037;-57
2023/04/02 10:17:23;;;;;;;1.80;0.97;;;13.10;99.90;;;;;;5006852;28;20030;-58
2023/04/02 10:20:05;;;;;;;3.10;1.27;;;12.70;99.90;;;;;;5001540;28;20442;-56
2023/04/02 10:22:31;;;;;;;1.80;1.23;;;12.60;99.90;;;;;;5006058;28;20084;-56
2023/04/02 10:24:58;;;;;;;1.77;1.10;;;12.40;99.90;;;;;;5014498;28;20026;-55
2023/04/02 10:27:46;;;;;;;2.45;1.30;;;12.90;99.90;;;;;;4988150;28;20022;-72
2023/04/02 10:31:07;;;;;;;1.13;0.63;;;13.10;99.90;;;;;;4992856;28;20033;-73
2023/04/02 10:33:36;;;;;;;7.13;0.75;;;12.40;99.90;;;;;;4987928;28;20123;-74
2023/04/02 10:36:21;;;;;;;0.43;0.40;;;11.80;99.90;;;;;;5002322;28;20033;-71
2023/04/02 10:39:32;;;;;;;0.77;0.32;;;11.80;99.90;;;;;;4999680;28;20422;-69
2023/04/02 10:42:34;;;;;;;1.50;0.75;;;11.30;99.90;;;;;;4970821;28;20117;-72
2023/04/02 10:45:15;;;;;;;0.82;0.30;;;11.30;99.90;;;;;;4990189;28;20601;-74
2023/04/02 10:48:36;;;;;;;0.30;0.20;;;11.30;99.90;;;;;;5009537;28;20046;-75
2023/04/02 10:51:47;;;;;;;0.63;0.20;;;11.20;99.90;;;;;;4997541;28;20041;-70
2023/04/02 10:54:39;;;;;;;0.20;0.20;;;11.10;99.90;;;;;;5009930;28;20059;-72
2023/04/02 10:57:39;;;;;;;1.23;0.40;;;11.00;99.90;;;;;;4993590;28;20065;-76
2023/04/02 11:00:11;;;;;;;0.10;0.10;;;10.90;99.90;;;;;;5008900;28;20044;-68
2023/04/02 11:03:26;;;;;;;0.35;0.20;;;10.90;99.90;;;;;;5008868;28;20089;-68
2023/04/02 11:05:59;;;;;;;0.10;0.10;;;11.00;99.90;;;;;;5004699;28;20034;-71
2023/04/02 11:08:56;;;;;;;0.32;0.20;;;11.10;99.90;;;;;;5012753;28;20041;-70
2023/04/02 11:11:40;;;;;;;0.65;0.20;;;11.10;99.90;;;;;;5006543;28;20128;-73
2023/04/02 11:14:24;;;;;;;0.43;0.32;;;11.00;99.90;;;;;;5008565;28;20038;-70
2023/04/02 11:16:53;;;;;;;0.98;0.22;;;11.00;99.90;;;;;;4979842;28;20498;-71
2023/04/02 11:19:28;;;;;;;0.10;0.10;;;11.00;99.90;;;;;;5003496;28;20033;-70
2023/04/02 11:22:19;;;;;;;0.25;0.20;;;10.80;99.90;;;;;;5001480;28;20048;-70
2023/04/02 11:24:53;;;;;;;0.75;0.28;;;10.90;99.90;;;;;;5002031;28;20845;-71
2023/04/02 11:27:25;;;;;;;0.15;0.13;;;10.90;99.90;;;;;;4996791;28;20731;-71
2023/04/02 11:30:25;;;;;;;0.85;0.28;;;11.00;99.90;;;;;;4981169;28;20034;-70
2023/04/02 11:32:53;;;;;;;1.13;0.32;;;11.10;99.90;;;;;;4982287;28;20496;-71
2023/04/02 11:35:31;;;;;;;0.00;0.00;;;11.10;99.90;;;;;;4994716;28;20154;-70
2023/04/02 11:38:10;;;;;;;0.10;0.10;;;11.20;99.90;;;;;;4998500;28;20070;-71
2023/04/02 11:40:46;;;;;;;3.45;0.25;;;11.00;99.90;;;;;;5003960;28;20414;-72
2023/04/02 11:43:34;;;;;;;0.28;0.20;;;11.00;99.90;;;;;;5012258;28;20478;-70
2023/04/02 11:46:50;;;;;;;0.10;0.10;;;11.10;99.90;;;;;;5009050;28;20560;-70
2023/04/02 11:50:04;;;;;;;0.85;0.35;;;11.00;99.90;;;;;;4994909;28;20046;-71
2023/04/02 11:52:43;;;;;;;0.10;0.10;;;10.80;99.90;;;;;;4954361;28;20049;-71
2023/04/02 11:55:32;;;;;;;0.47;0.17;;;10.70;99.90;;;;;;5002523;28;20034;-70
2023/04/02 11:58:07;;;;;;;0.35;0.28;;;10.80;99.90;;;;;;5004863;28;20030;-71
2023/04/02 12:01:14;;;;;;;2.75;0.20;;;10.50;99.90;;;;;;4980999;28;20085;-70
2023/04/02 12:04:13;;;;;;;0.00;0.00;;;10.50;99.90;;;;;;4999536;28;20038;-72
2023/04/02 12:07:06;;;;;;;0.28;0.20;;;10.40;99.90;;;;;;5002458;28;20490;-67
2023/04/02 12:09:51;;;;;;;2.80;0.55;;;10.40;99.90;;;;;;5010420;28;20038;-71
2023/04/02 12:12:23;;;;;;;0.95;0.10;;;10.50;99.90;;;;;;5000378;28;20056;-71
2023/04/02 12:14:53;;;;;;;0.15;0.15;;;10.40;99.90;;;;;;5011200;28;20026;-71
2023/04/02 12:17:35;;;;;;;0.33;0.20;;;10.50;99.90;;;;;;5007955;28;20028;-71
2023/04/02 12:20:12;;;;;;;0.13;0.13;;;10.50;99.90;;;;;;5004637;28;20489;-71
2023/04/02 12:22:46;;;;;;;0.13;0.13;;;10.60;99.90;;;;;;5010367;28;20037;-70
2023/04/02 12:25:17;;;;;;;0.43;0.32;;;10.70;99.90;;;;;;4996570;28;20040;-75
2023/04/02 12:27:45;;;;;;;0.28;0.28;;;10.80;99.90;;;;;;5010331;28;20096;-72
2023/04/02 12:30:13;;;;;;;0.50;0.40;;;10.80;99.90;;;;;;5011019;28;20029;-72
2023/04/02 12:32:39;;;;;;;0.45;0.38;;;10.90;99.90;;;;;;5009880;28;20042;-70
2023/04/02 12:35:07;;;;;;;0.80;0.30;;;11.00;99.90;;;;;;4998438;28;20445;-70
2023/04/02 12:37:33;;;;;;;8.23;1.52;;;11.10;99.90;;;;;;4985087;28;20524;-69
2023/04/02 12:40:04;;;;;;;1.05;0.47;;;11.20;99.90;;;;;;4995635;28;20034;-70
2023/04/02 12:42:34;;;;;;;1.85;0.85;;;11.20;99.90;;;;;;4976890;28;20080;-72
2023/04/02 12:45:01;;;;;;;0.75;0.45;;;11.40;99.90;;;;;;5001227;28;20520;-71
2023/04/02 12:47:28;;;;;;;0.82;0.45;;;11.20;99.90;;;;;;5008033;28;20486;-72
2023/04/02 12:49:57;;;;;;;0.70;0.38;;;11.20;99.90;;;;;;4997374;28;20034;-72
2023/04/02 12:52:27;;;;;;;0.95;0.30;;;11.20;99.90;;;;;;5004319;28;20042;-72
2023/04/02 12:55:02;;;;;;;0.35;0.35;;;11.10;99.90;;;;;;4980318;28;20033;-72
2023/04/02 12:57:28;;;;;;;0.98;0.50;;;11.00;99.90;;;;;;4997358;28;20030;-72
2023/04/02 12:59:56;;;;;;;1.42;1.15;;;11.20;99.90;;;;;;5010672;28;20041;-72
2023/04/02 13:02:28;;;;;;;0.30;0.30;;;11.50;99.90;;;;;;5008628;28;20026;-73
2023/04/02 13:05:00;;;;;;;0.70;0.38;;;11.60;99.90;;;;;;4999170;28;20533;-73
2023/04/02 13:07:31;;;;;;;0.75;0.25;;;11.80;99.90;;;;;;4999264;28;20537;-74
2023/04/02 13:10:26;;;;;;;0.60;0.30;;;11.60;99.90;;;;;;5009430;28;20030;-68
2023/04/02 13:13:01;;;;;;;0.32;0.20;;;11.20;99.90;;;;;;4993377;28;20034;-66
2023/04/02 13:15:35;;;;;;;0.10;0.10;;;11.40;99.90;;;;;;4989558;28;20136;-67
2023/04/02 13:18:21;;;;;;;3.58;0.30;;;11.00;99.90;;;;;;5001183;28;20037;-67
2023/04/02 13:21:01;;;;;;;0.20;0.20;;;11.00;99.90;;;;;;5007825;28;20032;-67
2023/04/02 13:23:35;;;;;;;0.75;0.40;;;11.00;99.90;;;;;;5008841;28;20584;-67
2023/04/02 13:26:23;;;;;;;0.52;0.20;;;11.00;99.90;;;;;;4993850;28;20026;-69
2023/04/02 13:29:24;;;;;;;0.13;0.10;;;11.00;99.90;;;;;;5016963;28;20033;-69
2023/04/02 13:31:52;;;;;;;0.93;0.52;;;10.90;99.90;;;;;;5009366;28;20576;-68
2023/04/02 13:34:18;;;;;;;0.45;0.30;;;10.80;99.90;;;;;;5009751;28;20036;-67
2023/04/02 13:36:45;;;;;;;0.90;0.45;;;10.90;99.90;;;;;;5000035;28;20030;-67
2023/04/02 13:39:11;;;;;;;0.98;0.40;;;10.70;99.90;;;;;;5008362;28;20084;-67
2023/04/02 13:41:45;;;;;;;0.30;0.20;;;10.30;99.90;;;;;;5010051;28;20037;-68
2023/04/02 13:44:18;;;;;;;1.30;0.60;;;10.40;99.90;;;;;;5000158;28;20029;-67
2023/04/02 13:46:43;;;;;;;0.13;0.13;;;10.40;99.90;;;;;;5010110;28;20092;-67
2023/04/02 13:49:10;;;;;;;0.20;0.17;;;10.50;99.90;;;;;;5006099;28;20013;-67